Time;durP1;ratioP1;P1;durP2;ratioP2;P2;SDS_P1;SDS_P2;PMS_P1;PMS_P2;Temp;Humidity;BMP_temperature;BMP_pressure;BME280_temperature;BME280_humidity;BME280_pressure;Samples;Min_cycle;Max_cycle;Signal;HPM_P1;HPM_P2
2023/12/08 00:01:10;;;;;;;16.20;10.20;;;;;;;-2.85;100.00;101092.01;104430;1269;71414;-51
2023/12/08 00:03:37;;;;;;;16.90;11.30;;;;;;;-2.83;100.00;101083.98;104021;1269;59730;-52
2023/12/08 00:06:07;;;;;;;18.20;11.20;;;;;;;-2.82;100.00;101079.82;104221;1266;59958;-51
2023/12/08 00:08:34;;;;;;;16.20;11.80;;;;;;;-2.80;100.00;101080.35;104629;1269;70915;-49
2023/12/08 00:11:02;;;;;;;18.90;12.40;;;;;;;-2.80;100.00;101078.61;103910;1267;68127;-52
2023/12/08 00:13:29;;;;;;;14.80;11.30;;;;;;;-2.81;100.00;101077.71;103956;1266;71268;-51
2023/12/08 00:15:57;;;;;;;14.00;9.80;;;;;;;-2.82;100.00;101075.95;104163;1268;59733;-50
2023/12/08 00:18:24;;;;;;;14.00;10.10;;;;;;;-2.84;100.00;101072.91;103921;1265;59617;-51
2023/12/08 00:20:53;;;;;;;14.20;10.30;;;;;;;-2.87;100.00;101073.16;105730;1268;71667;-52
2023/12/08 00:23:20;;;;;;;15.20;10.00;;;;;;;-2.88;100.00;101070.66;105314;1266;66234;-52
2023/12/08 00:25:48;;;;;;;15.00;11.20;;;;;;;-2.90;100.00;101066.95;104062;1269;71410;-51
2023/12/08 00:28:15;;;;;;;13.20;10.00;;;;;;;-2.90;100.00;101065.52;104292;1269;59855;-51
2023/12/08 00:30:43;;;;;;;14.00;9.50;;;;;;;-2.90;100.00;101067.48;103994;1264;59813;-50
2023/12/08 00:33:10;;;;;;;12.00;9.90;;;;;;;-2.88;100.00;101065.21;104048;1265;71817;-51
2023/12/08 00:35:38;;;;;;;12.40;9.20;;;;;;;-2.86;100.00;101064.03;105808;1266;66787;-50
2023/12/08 00:38:05;;;;;;;13.50;10.00;;;;;;;-2.84;100.00;101060.77;103902;1266;71276;-50
2023/12/08 00:40:32;;;;;;;14.60;9.90;;;;;;;-2.79;100.00;101060.37;104059;1269;59799;-50
2023/12/08 00:43:00;;;;;;;11.30;8.40;;;;;;;-2.77;100.00;101059.03;104049;1269;59964;-49
2023/12/08 00:45:27;;;;;;;13.30;8.70;;;;;;;-2.73;100.00;101055.26;104036;1267;73562;-50
2023/12/08 00:47:55;;;;;;;13.90;10.10;;;;;;;-2.70;100.00;101052.71;104536;1261;66780;-50
2023/12/08 00:50:22;;;;;;;16.10;10.30;;;;;;;-2.66;100.00;101051.05;104567;1263;71372;-50
2023/12/08 00:52:50;;;;;;;14.50;9.60;;;;;;;-2.65;100.00;101050.57;104725;1258;59740;-50
2023/12/08 00:55:17;;;;;;;15.60;10.60;;;;;;;-2.62;100.00;101050.78;104379;1262;59643;-50
2023/12/08 00:57:45;;;;;;;11.70;9.40;;;;;;;-2.62;100.00;101046.23;104600;1261;71753;-50
2023/12/08 01:00:12;;;;;;;15.70;11.60;;;;;;;-2.62;100.00;101038.31;104664;1262;65615;-52
2023/12/08 01:02:40;;;;;;;12.70;9.20;;;;;;;-2.61;100.00;101039.91;108675;1261;73641;-51
2023/12/08 01:05:08;;;;;;;13.10;10.10;;;;;;;-2.61;100.00;101034.98;108866;1257;61415;-51
2023/12/08 01:07:35;;;;;;;11.30;8.90;;;;;;;-2.62;100.00;101036.92;108815;1257;58375;-51
2023/12/08 01:10:03;;;;;;;14.30;9.50;;;;;;;-2.61;100.00;101038.53;108615;1261;74233;-51
2023/12/08 01:12:30;;;;;;;13.10;10.00;;;;;;;-2.60;100.00;101033.82;108722;1261;64803;-52
2023/12/08 01:14:58;;;;;;;12.10;8.90;;;;;;;-2.60;100.00;101031.33;108676;1262;74880;-52
2023/12/08 01:17:25;;;;;;;11.50;9.00;;;;;;;-2.58;100.00;101027.70;108603;1261;59029;-51
2023/12/08 01:19:53;;;;;;;12.70;9.10;;;;;;;-2.56;100.00;101030.76;108718;1259;58913;-52
2023/12/08 01:22:23;;;;;;;12.40;9.10;;;;;;;-2.51;100.00;101024.19;108673;1263;71812;-52
2023/12/08 01:24:50;;;;;;;10.00;7.00;;;;;;;-2.49;100.00;101023.38;108822;1257;68649;-52
2023/12/08 01:27:18;;;;;;;14.80;8.80;;;;;;;-2.45;100.00;101020.65;108741;1261;73045;-51
2023/12/08 01:29:45;;;;;;;12.00;8.50;;;;;;;-2.42;100.00;101017.56;108697;1262;58093;-51
2023/12/08 01:32:13;;;;;;;14.40;9.80;;;;;;;-2.41;100.00;101018.98;108735;1257;60088;-52
2023/12/08 01:34:41;;;;;;;13.10;9.90;;;;;;;-2.43;100.00;101014.19;108745;1257;73077;-51
2023/12/08 01:37:08;;;;;;;11.00;9.40;;;;;;;-2.45;100.00;101012.02;108707;1257;67416;-51
2023/12/08 01:39:36;;;;;;;15.20;11.40;;;;;;;-2.47;100.00;101008.13;105453;1257;71748;-51
2023/12/08 01:42:03;;;;;;;20.00;11.80;;;;;;;-2.49;100.00;101011.41;105492;1264;59822;-51
2023/12/08 01:44:31;;;;;;;14.00;10.60;;;;;;;-2.53;100.00;101010.95;105001;1259;59603;-50
2023/12/08 01:46:58;;;;;;;12.20;9.10;;;;;;;-2.55;100.00;101010.20;104870;1253;71832;-52
2023/12/08 01:49:26;;;;;;;12.20;9.70;;;;;;;-2.57;100.00;101014.89;104879;1257;67535;-51
2023/12/08 01:51:54;;;;;;;10.80;8.50;;;;;;;-2.59;100.00;101013.27;104956;1259;71430;-51
2023/12/08 01:54:21;;;;;;;12.90;8.30;;;;;;;-2.57;100.00;101014.20;105188;1258;59750;-50
2023/12/08 01:56:48;;;;;;;13.30;9.10;;;;;;;-2.54;100.00;101010.39;104913;1251;60585;-51
2023/12/08 01:59:16;;;;;;;11.40;8.00;;;;;;;-2.52;100.00;101010.95;104979;1259;73083;-51
2023/12/08 02:01:43;;;;;;;10.70;7.90;;;;;;;-2.51;100.00;101013.80;104951;1257;65671;-50
2023/12/08 02:04:10;;;;;;;9.40;8.30;;;;;;;-2.51;100.00;101013.65;104882;1256;72773;-51
2023/12/08 02:06:38;;;;;;;10.80;8.30;;;;;;;-2.49;100.00;101013.70;105161;1257;59708;-50
2023/12/08 02:09:07;;;;;;;11.30;8.20;;;;;;;-2.48;100.00;101013.90;105154;1258;59390;-50
2023/12/08 02:11:35;;;;;;;11.50;8.80;;;;;;;-2.47;100.00;101014.63;104938;1257;71833;-51
2023/12/08 02:14:02;;;;;;;8.80;7.10;;;;;;;-2.49;100.00;101014.59;104927;1258;66445;-52
2023/12/08 02:16:40;;;;;;;10.10;8.40;;;;;;;-2.50;100.00;101013.50;104863;1253;71398;-50
2023/12/08 02:19:08;;;;;;;11.90;8.90;;;;;;;-2.49;100.00;101011.92;106020;1257;59503;-51
2023/12/08 02:21:36;;;;;;;13.10;9.30;;;;;;;-2.50;100.00;101013.14;104953;1254;59705;-50
2023/12/08 02:24:04;;;;;;;13.30;9.00;;;;;;;-2.50;100.00;101013.84;105233;1257;73089;-50
2023/12/08 02:26:31;;;;;;;11.10;8.00;;;;;;;-2.49;100.00;101011.58;105276;1255;65753;-50
2023/12/08 02:28:59;;;;;;;12.10;8.60;;;;;;;-2.49;100.00;101009.67;105146;1254;73002;-51
2023/12/08 02:31:35;;;;;;;8.90;7.40;;;;;;;-2.47;100.00;101011.30;105549;1257;59909;-50
2023/12/08 02:34:02;;;;;;;10.20;8.30;;;;;;;-2.44;100.00;101012.39;105867;1257;60538;-52
2023/12/08 02:36:30;;;;;;;9.50;7.10;;;;;;;-2.42;100.00;101016.34;105548;1253;71871;-50
2023/12/08 02:38:58;;;;;;;8.60;6.30;;;;;;;-2.40;100.00;101013.40;104990;1258;66787;-50
2023/12/08 02:41:25;;;;;;;8.70;6.70;;;;;;;-2.38;100.00;101016.42;105002;1259;71134;-51
2023/12/08 02:43:53;;;;;;;9.60;7.40;;;;;;;-2.35;100.00;101014.91;104942;1252;59724;-49
2023/12/08 02:46:20;;;;;;;11.10;7.00;;;;;;;-2.31;100.00;101015.71;105123;1255;59711;-50
2023/12/08 02:48:47;;;;;;;9.90;7.50;;;;;;;-2.27;100.00;101019.31;105303;1257;73074;-50
2023/12/08 02:51:21;;;;;;;9.50;6.60;;;;;;;-2.25;100.00;101017.59;105202;1257;66191;-50
2023/12/08 02:53:49;;;;;;;10.30;7.90;;;;;;;-2.25;100.00;101017.77;105119;1257;72673;-51
2023/12/08 02:56:16;;;;;;;8.90;7.00;;;;;;;-2.26;100.00;101015.63;105140;1251;59708;-49
2023/12/08 02:58:44;;;;;;;14.00;9.50;;;;;;;-2.29;100.00;101016.64;105018;1254;59742;-50
2023/12/08 03:01:12;;;;;;;11.20;8.50;;;;;;;-2.32;100.00;101019.21;105031;1257;73080;-51
2023/12/08 03:03:39;;;;;;;9.60;7.40;;;;;;;-2.37;100.00;101020.67;105163;1251;69492;-51
2023/12/08 03:06:07;;;;;;;10.70;6.60;;;;;;;-2.42;100.00;101019.67;106183;1257;72070;-50
2023/12/08 03:08:35;;;;;;;11.80;7.50;;;;;;;-2.43;100.00;101021.40;105585;1258;61286;-50
2023/12/08 03:11:03;;;;;;;10.30;7.20;;;;;;;-2.42;100.00;101019.48;104860;1258;59860;-50
2023/12/08 03:13:30;;;;;;;12.30;7.10;;;;;;;-2.42;100.00;101017.73;104915;1254;73091;-49
2023/12/08 03:15:58;;;;;;;10.20;7.20;;;;;;;-2.41;100.00;101017.77;105029;1254;65002;-50
2023/12/08 03:18:25;;;;;;;9.10;6.70;;;;;;;-2.38;100.00;101016.95;104983;1254;71453;-51
2023/12/08 03:20:53;;;;;;;10.40;6.80;;;;;;;-2.34;100.00;101019.16;104951;1251;62881;-49
2023/12/08 03:23:20;;;;;;;9.50;6.70;;;;;;;-2.33;100.00;101020.95;105148;1257;60553;-51
2023/12/08 03:25:48;;;;;;;10.60;6.80;;;;;;;-2.31;100.00;101017.66;105190;1254;71854;-48
2023/12/08 03:28:15;;;;;;;9.10;6.20;;;;;;;-2.29;100.00;101019.09;105043;1251;66518;-49
2023/12/08 03:30:43;;;;;;;12.40;6.80;;;;;;;-2.27;100.00;101013.86;104840;1257;71583;-50
2023/12/08 03:33:10;;;;;;;8.70;6.40;;;;;;;-2.26;100.00;101011.42;105070;1254;59605;-51
2023/12/08 03:35:38;;;;;;;10.00;7.60;;;;;;;-2.27;100.00;101010.50;104883;1257;59712;-51
2023/12/08 03:38:05;;;;;;;9.80;6.70;;;;;;;-2.30;100.00;101007.83;105062;1253;71799;-50
2023/12/08 03:40:32;;;;;;;9.30;6.90;;;;;;;-2.31;100.00;101006.76;104777;1254;70005;-50
2023/12/08 03:43:00;;;;;;;10.00;6.60;;;;;;;-2.32;100.00;101009.54;104839;1257;72893;-50
2023/12/08 03:45:28;;;;;;;8.00;5.80;;;;;;;-2.33;100.00;101009.88;107829;1254;60855;-50
2023/12/08 03:47:55;;;;;;;10.80;6.30;;;;;;;-2.33;100.00;101008.64;104924;1257;61367;-50
2023/12/08 03:50:23;;;;;;;9.10;6.40;;;;;;;-2.31;100.00;101008.52;105156;1253;71728;-49
2023/12/08 03:52:54;;;;;;;8.40;5.90;;;;;;;-2.26;100.00;101003.50;104937;1255;68025;-51
2023/12/08 03:55:22;;;;;;;7.90;5.50;;;;;;;-2.23;100.00;101003.77;105016;1254;74174;-51
2023/12/08 03:57:49;;;;;;;9.20;6.30;;;;;;;-2.21;100.00;101001.70;104889;1255;60537;-49
2023/12/08 04:00:17;;;;;;;6.40;5.10;;;;;;;-2.18;100.00;100998.06;109070;1253;58927;-51
2023/12/08 04:02:45;;;;;;;10.00;6.50;;;;;;;-2.15;100.00;100994.80;109176;1251;72721;-51
2023/12/08 04:05:12;;;;;;;7.80;5.50;;;;;;;-2.12;100.00;100990.81;109010;1252;65623;-51
2023/12/08 04:07:40;;;;;;;10.40;6.70;;;;;;;-2.10;100.00;100993.52;109272;1253;71328;-52
2023/12/08 04:10:07;;;;;;;12.50;7.20;;;;;;;-2.09;100.00;100992.99;109096;1254;59297;-51
2023/12/08 04:12:35;;;;;;;11.40;8.30;;;;;;;-2.12;100.00;100995.56;105377;1257;60392;-51
2023/12/08 04:15:03;;;;;;;9.40;6.50;;;;;;;-2.16;100.00;100994.77;104825;1255;73904;-51
2023/12/08 04:17:30;;;;;;;11.30;7.40;;;;;;;-2.20;100.00;100996.26;109211;1254;65848;-50
2023/12/08 04:19:58;;;;;;;8.80;5.70;;;;;;;-2.21;100.00;101000.47;106154;1257;73056;-51
2023/12/08 04:22:26;;;;;;;8.50;6.10;;;;;;;-2.23;100.00;101004.48;104904;1251;61390;-51
2023/12/08 04:24:54;;;;;;;8.90;6.00;;;;;;;-2.24;100.00;101006.55;104749;1257;60331;-50
2023/12/08 04:27:21;;;;;;;9.00;5.60;;;;;;;-2.22;100.00;101004.14;104829;1254;72898;-50
2023/12/08 04:29:48;;;;;;;9.80;6.20;;;;;;;-2.21;100.00;101006.96;104859;1254;65655;-50
2023/12/08 04:32:16;;;;;;;9.30;6.10;;;;;;;-2.18;100.00;101002.98;109118;1253;71561;-51
2023/12/08 04:34:43;;;;;;;5.30;4.20;;;;;;;-2.14;100.00;101004.50;109110;1253;59701;-51
2023/12/08 04:37:11;;;;;;;7.50;5.10;;;;;;;-2.10;100.00;101003.52;109158;1253;60020;-50
2023/12/08 04:39:38;;;;;;;6.30;4.60;;;;;;;-2.06;100.00;101003.83;109060;1251;73779;-51
2023/12/08 04:42:07;;;;;;;9.70;5.50;;;;;;;-2.05;100.00;101004.73;106474;1257;65710;-52
2023/12/08 04:44:35;;;;;;;7.00;4.90;;;;;;;-2.03;100.00;101005.42;106785;1251;70666;-51
2023/12/08 04:47:03;;;;;;;8.20;5.50;;;;;;;-2.03;100.00;101007.02;104964;1258;60523;-50
2023/12/08 04:49:30;;;;;;;8.70;6.00;;;;;;;-2.04;100.00;101007.71;104878;1251;60514;-50
2023/12/08 04:51:58;;;;;;;9.70;5.30;;;;;;;-2.06;100.00;101007.33;104936;1251;74809;-52
2023/12/08 04:54:25;;;;;;;8.70;5.30;;;;;;;-2.08;100.00;101008.48;104889;1255;66893;-50
2023/12/08 04:56:52;;;;;;;7.10;5.10;;;;;;;-2.12;100.00;101004.55;104889;1258;73014;-50
2023/12/08 04:59:20;;;;;;;6.50;4.60;;;;;;;-2.14;100.00;101004.52;104781;1254;60879;-50
2023/12/08 05:01:51;;;;;;;6.60;4.90;;;;;;;-2.14;100.00;101002.73;104940;1254;60566;-51
2023/12/08 05:04:19;;;;;;;5.80;4.30;;;;;;;-2.13;100.00;101006.65;104908;1257;73943;-51
2023/12/08 05:06:46;;;;;;;5.30;3.20;;;;;;;-2.12;100.00;101003.13;105030;1254;65938;-51
2023/12/08 05:09:14;;;;;;;5.10;3.70;;;;;;;-2.11;100.00;101001.38;104785;1254;72781;-51
2023/12/08 05:11:41;;;;;;;7.20;4.40;;;;;;;-2.12;100.00;100998.91;104835;1254;60553;-51
2023/12/08 05:14:09;;;;;;;5.90;3.60;;;;;;;-2.09;100.00;101000.02;104766;1257;60440;-51
2023/12/08 05:16:36;;;;;;;5.80;3.80;;;;;;;-2.06;100.00;101000.27;105021;1251;71639;-50
2023/12/08 05:19:03;;;;;;;10.30;4.30;;;;;;;-2.03;100.00;101002.98;104909;1256;66893;-51
2023/12/08 05:21:31;;;;;;;8.00;5.20;;;;;;;-2.02;100.00;101005.81;104981;1254;72595;-52
2023/12/08 05:23:59;;;;;;;10.30;4.70;;;;;;;-2.02;100.00;101005.98;104866;1254;60433;-53
2023/12/08 05:26:26;;;;;;;5.00;4.00;;;;;;;-2.03;100.00;101008.77;105074;1254;60539;-51
2023/12/08 05:28:54;;;;;;;6.60;4.20;;;;;;;-2.03;100.00;101011.23;105168;1255;71561;-52
2023/12/08 05:31:21;;;;;;;6.50;4.40;;;;;;;-2.05;100.00;101006.46;104807;1254;65512;-56
2023/12/08 05:33:49;;;;;;;10.70;5.30;;;;;;;-2.08;100.00;101007.43;105002;1257;71885;-51
2023/12/08 05:36:17;;;;;;;7.40;5.30;;;;;;;-2.11;100.00;101008.41;105029;1252;60453;-52
2023/12/08 05:38:45;;;;;;;7.20;4.70;;;;;;;-2.13;100.00;101008.05;107957;1253;60615;-53
2023/12/08 05:41:12;;;;;;;7.10;4.80;;;;;;;-2.14;100.00;101008.20;104944;1251;72577;-49
2023/12/08 05:43:40;;;;;;;10.60;5.60;;;;;;;-2.14;100.00;101007.33;105144;1254;66758;-53
2023/12/08 05:46:07;;;;;;;9.70;4.80;;;;;;;-2.13;100.00;101006.29;105028;1254;73355;-50
2023/12/08 05:48:34;;;;;;;7.20;3.90;;;;;;;-2.11;100.00;101007.71;105105;1254;60630;-52
2023/12/08 05:51:03;;;;;;;9.00;4.80;;;;;;;-2.09;100.00;101009.71;105061;1253;60495;-51
2023/12/08 05:53:30;;;;;;;7.10;4.00;;;;;;;-2.05;100.00;101007.52;105818;1256;73877;-52
2023/12/08 05:55:58;;;;;;;6.70;4.30;;;;;;;-2.02;100.00;101005.64;105166;1257;67091;-52
2023/12/08 05:58:25;;;;;;;4.20;3.60;;;;;;;-2.00;100.00;101002.89;104992;1257;72688;-52
2023/12/08 06:00:52;;;;;;;6.80;4.30;;;;;;;-1.97;100.00;101003.30;104948;1257;60358;-51
2023/12/08 06:03:20;;;;;;;4.60;3.40;;;;;;;-1.94;100.00;101004.75;105284;1257;61169;-51
2023/12/08 06:05:47;;;;;;;5.40;3.60;;;;;;;-1.93;100.00;101006.54;105211;1255;73667;-51
2023/12/08 06:08:15;;;;;;;5.00;3.70;;;;;;;-1.93;100.00;101008.82;105194;1253;65652;-51
2023/12/08 06:10:42;;;;;;;5.10;4.20;;;;;;;-1.96;100.00;101012.30;104982;1253;72030;-52
2023/12/08 06:13:10;;;;;;;5.80;3.50;;;;;;;-1.97;100.00;101015.10;105265;1253;60280;-53
2023/12/08 06:15:37;;;;;;;6.00;3.80;;;;;;;-2.00;100.00;101015.90;104997;1252;60401;-48
2023/12/08 06:18:05;;;;;;;6.20;4.60;;;;;;;-2.02;100.00;101016.55;104987;1257;72574;-51
2023/12/08 06:20:32;;;;;;;7.20;4.50;;;;;;;-2.04;100.00;101013.52;105517;1254;65985;-48
2023/12/08 06:23:00;;;;;;;5.40;4.10;;;;;;;-2.05;100.00;101014.91;105035;1257;72735;-50
2023/12/08 06:25:28;;;;;;;4.90;3.00;;;;;;;-2.04;100.00;101011.75;107258;1256;60859;-49
2023/12/08 06:27:55;;;;;;;6.90;3.50;;;;;;;-2.02;100.00;101015.32;104923;1257;60860;-51
2023/12/08 06:30:22;;;;;;;4.60;3.00;;;;;;;-2.01;100.00;101010.77;105075;1257;73874;-48
2023/12/08 06:32:50;;;;;;;6.80;3.40;;;;;;;-1.99;100.00;101012.41;105135;1256;66123;-49
2023/12/08 06:35:17;;;;;;;7.10;3.70;;;;;;;-1.95;100.00;101009.69;107384;1252;71437;-52
2023/12/08 06:37:45;;;;;;;8.60;3.50;;;;;;;-1.91;100.00;101018.04;105049;1253;60514;-52
2023/12/08 06:40:13;;;;;;;4.80;3.70;;;;;;;-1.86;100.00;101020.41;104899;1253;60674;-51
2023/12/08 06:42:40;;;;;;;7.00;4.20;;;;;;;-1.83;100.00;101017.67;105003;1256;74804;-51
2023/12/08 06:45:08;;;;;;;6.10;3.80;;;;;;;-1.78;100.00;101016.19;105126;1253;65715;-51
2023/12/08 06:47:36;;;;;;;8.00;4.30;;;;;;;-1.77;100.00;101017.97;105203;1258;71680;-51
2023/12/08 06:50:04;;;;;;;5.10;4.20;;;;;;;-1.76;100.00;101019.39;104949;1253;60629;-51
2023/12/08 06:52:32;;;;;;;5.60;4.40;;;;;;;-1.80;100.00;101017.23;104934;1257;60610;-51
2023/12/08 06:54:59;;;;;;;4.50;2.80;;;;;;;-1.83;100.00;101018.91;104841;1253;72001;-51
2023/12/08 06:57:27;;;;;;;5.40;3.20;;;;;;;-1.83;100.00;101020.13;105038;1253;69168;-51
2023/12/08 06:59:55;;;;;;;4.30;3.20;;;;;;;-1.83;100.00;101014.85;104802;1253;70601;-51
2023/12/08 07:02:25;;;;;;;4.40;2.60;;;;;;;-1.81;100.00;101017.89;107880;1253;61835;-52
2023/12/08 07:04:52;;;;;;;3.50;3.10;;;;;;;-1.78;100.00;101015.31;105002;1255;60493;-51
2023/12/08 07:07:20;;;;;;;4.30;2.50;;;;;;;-1.75;100.00;101018.20;109041;1253;73907;-52
2023/12/08 07:09:47;;;;;;;3.40;2.50;;;;;;;-1.72;100.00;101021.96;109052;1251;65622;-52
2023/12/08 07:12:15;;;;;;;3.50;2.30;;;;;;;-1.71;100.00;101022.70;109060;1253;72726;-53
2023/12/08 07:14:42;;;;;;;4.30;2.40;;;;;;;-1.68;100.00;101024.85;109110;1253;61583;-52
2023/12/08 07:17:10;;;;;;;4.90;3.10;;;;;;;-1.64;100.00;101022.84;109053;1251;60130;-53
2023/12/08 07:19:38;;;;;;;3.70;2.50;;;;;;;-1.61;100.00;101021.16;109225;1251;72482;-50
2023/12/08 07:22:06;;;;;;;3.80;2.90;;;;;;;-1.58;100.00;101021.92;109022;1253;68020;-51
2023/12/08 07:24:33;;;;;;;5.20;2.70;;;;;;;-1.54;100.00;101021.98;109153;1253;71749;-50
2023/12/08 07:27:00;;;;;;;3.90;2.70;;;;;;;-1.53;100.00;101025.17;108953;1253;59250;-51
2023/12/08 07:29:28;;;;;;;5.20;3.20;;;;;;;-1.52;100.00;101026.25;109014;1253;58826;-49
2023/12/08 07:31:55;;;;;;;4.10;3.40;;;;;;;-1.53;100.00;101026.58;109111;1253;72657;-51
2023/12/08 07:34:23;;;;;;;5.40;3.60;;;;;;;-1.56;100.00;101026.88;109225;1253;67480;-51
2023/12/08 07:36:50;;;;;;;7.80;3.60;;;;;;;-1.57;100.00;101024.92;107576;1256;75031;-52
2023/12/08 07:39:19;;;;;;;4.70;3.40;;;;;;;-1.57;100.00;101026.70;105204;1252;59938;-52
2023/12/08 07:41:46;;;;;;;5.70;2.70;;;;;;;-1.54;100.00;101029.73;105746;1253;60533;-50
2023/12/08 07:44:14;;;;;;;4.90;2.60;;;;;;;-1.50;100.00;101026.11;105081;1253;72371;-50
2023/12/08 07:46:42;;;;;;;4.50;2.90;;;;;;;-1.46;100.00;101028.14;104854;1253;65664;-50
2023/12/08 07:49:09;;;;;;;3.50;2.70;;;;;;;-1.43;100.00;101028.38;105522;1254;70709;-51
2023/12/08 07:51:37;;;;;;;5.10;2.40;;;;;;;-1.39;100.00;101025.48;105042;1253;60937;-51
2023/12/08 07:54:05;;;;;;;4.00;2.90;;;;;;;-1.36;100.00;101023.77;104880;1253;60611;-51
2023/12/08 07:56:33;;;;;;;5.70;2.70;;;;;;;-1.32;100.00;101020.86;105565;1254;72708;-51
2023/12/08 07:59:01;;;;;;;3.50;3.00;;;;;;;-1.27;100.00;101021.64;105115;1256;67196;-52
2023/12/08 08:01:29;;;;;;;4.70;3.10;;;;;;;-1.26;100.00;101020.07;105066;1251;73038;-50
2023/12/08 08:03:57;;;;;;;6.40;4.80;;;;;;;-1.28;100.00;101019.17;104935;1254;60451;-50
2023/12/08 08:06:25;;;;;;;5.90;4.00;;;;;;;-1.30;100.00;101015.45;104947;1253;60692;-50
2023/12/08 08:08:52;;;;;;;6.60;3.90;;;;;;;-1.33;100.00;101007.09;107060;1253;72437;-51
2023/12/08 08:11:20;;;;;;;3.40;2.50;;;;;;;-1.36;100.00;101008.27;104941;1254;65161;-52
2023/12/08 08:13:47;;;;;;;5.30;2.90;;;;;;;-1.39;100.00;101006.10;104873;1258;71482;-51
2023/12/08 08:16:15;;;;;;;4.20;2.90;;;;;;;-1.41;100.00;101003.08;105002;1256;60967;-52
2023/12/08 08:18:42;;;;;;;4.50;3.20;;;;;;;-1.39;100.00;101007.67;105669;1253;60568;-52
2023/12/08 08:21:10;;;;;;;2.60;2.40;;;;;;;-1.36;100.00;101006.16;105040;1255;72409;-51
2023/12/08 08:23:37;;;;;;;4.40;2.70;;;;;;;-1.33;100.00;101004.10;104950;1253;65014;-52
2023/12/08 08:26:06;;;;;;;4.90;2.10;;;;;;;-1.29;100.00;101004.02;105063;1253;73690;-52
2023/12/08 08:28:34;;;;;;;5.50;2.80;;;;;;;-1.25;100.00;101002.85;104878;1253;60423;-52
2023/12/08 08:31:01;;;;;;;6.20;3.30;;;;;;;-1.22;100.00;100999.38;104780;1253;60429;-51
2023/12/08 08:33:28;;;;;;;4.20;3.30;;;;;;;-1.20;100.00;100996.26;104968;1254;74933;-52
2023/12/08 08:35:56;;;;;;;3.00;2.30;;;;;;;-1.20;100.00;100997.67;105060;1251;68132;-52
2023/12/08 08:38:24;;;;;;;4.50;2.90;;;;;;;-1.21;100.00;100997.30;104755;1253;72692;-52
2023/12/08 08:40:51;;;;;;;4.00;2.80;;;;;;;-1.24;100.00;101000.05;105056;1251;60537;-52
2023/12/08 08:43:19;;;;;;;2.60;2.40;;;;;;;-1.25;100.00;101004.06;104961;1253;60297;-53
2023/12/08 08:45:47;;;;;;;2.90;2.50;;;;;;;-1.26;100.00;101000.88;106887;1253;74134;-52
2023/12/08 08:48:14;;;;;;;4.50;2.50;;;;;;;-1.26;100.00;101001.23;104824;1253;65428;-48
2023/12/08 08:50:46;;;;;;;3.50;2.50;;;;;;;-1.25;100.00;101000.21;104875;1253;72699;-52
2023/12/08 08:53:17;;;;;;;4.60;3.20;;;;;;;-1.22;100.00;101000.62;104991;1253;60509;-52
2023/12/08 08:55:45;;;;;;;3.70;2.70;;;;;;;-1.19;100.00;100998.90;106442;1256;60397;-51
2023/12/08 08:58:12;;;;;;;3.40;2.50;;;;;;;-1.15;100.00;100998.45;105060;1257;72653;-52
2023/12/08 09:00:40;;;;;;;3.90;3.00;;;;;;;-1.12;100.00;100997.81;104839;1253;66982;-51
2023/12/08 09:03:07;;;;;;;3.90;2.90;;;;;;;-1.10;100.00;100996.42;105231;1253;72414;-51
2023/12/08 09:05:40;;;;;;;4.90;2.60;;;;;;;-1.08;100.00;100998.94;104845;1254;60615;-51
2023/12/08 09:08:09;;;;;;;4.10;3.30;;;;;;;-1.06;100.00;100995.98;105241;1253;60515;-51
2023/12/08 09:10:36;;;;;;;3.50;3.20;;;;;;;-1.07;100.00;100993.33;105010;1253;72660;-52
2023/12/08 09:13:04;;;;;;;4.40;2.80;;;;;;;-1.07;100.00;100994.55;105087;1253;69342;-52
2023/12/08 09:15:32;;;;;;;5.60;3.80;;;;;;;-1.10;100.00;100990.27;104885;1254;71463;-52
2023/12/08 09:18:00;;;;;;;4.40;2.80;;;;;;;-1.14;100.00;100987.91;104767;1253;60964;-52
2023/12/08 09:20:27;;;;;;;4.00;2.60;;;;;;;-1.14;100.00;100980.88;104956;1251;61194;-52
2023/12/08 09:22:55;;;;;;;4.10;2.10;;;;;;;-1.10;100.00;100978.46;104860;1257;74618;-51
2023/12/08 09:25:22;;;;;;;3.30;2.50;;;;;;;-1.06;100.00;100976.78;104871;1253;65763;-51
2023/12/08 09:27:50;;;;;;;2.70;2.40;;;;;;;-1.01;100.00;100974.39;105028;1253;71407;-51
2023/12/08 09:30:17;;;;;;;3.10;2.10;;;;;;;-0.96;100.00;100976.43;106526;1253;60569;-52
2023/12/08 09:32:45;;;;;;;3.50;2.70;;;;;;;-0.91;100.00;100976.86;105170;1256;60554;-53
2023/12/08 09:35:13;;;;;;;3.40;1.90;;;;;;;-0.87;100.00;100971.85;104936;1256;72626;-52
2023/12/08 09:37:40;;;;;;;4.50;3.10;;;;;;;-0.83;100.00;100974.72;104858;1253;67292;-52
2023/12/08 09:40:08;;;;;;;2.60;2.20;;;;;;;-0.81;100.00;100977.42;104717;1253;72697;-53
2023/12/08 09:42:41;;;;;;;3.90;2.70;;;;;;;-0.79;100.00;100976.55;109071;1251;58589;-52
2023/12/08 09:45:10;;;;;;;3.40;2.80;;;;;;;-0.81;100.00;100981.29;107393;1253;60425;-51
2023/12/08 09:47:39;;;;;;;5.50;3.10;;;;;;;-0.85;100.00;100979.10;106674;1253;71626;-53
2023/12/08 09:50:09;;;;;;;4.00;2.60;;;;;;;-0.88;100.00;100977.29;106308;1253;67332;-51
2023/12/08 09:52:37;;;;;;;3.70;3.10;;;;;;;-0.88;100.00;100977.45;105153;1253;73119;-51
2023/12/08 09:55:05;;;;;;;3.70;2.80;;;;;;;-0.87;100.00;100975.73;104812;1255;60441;-52
2023/12/08 09:57:34;;;;;;;3.80;2.90;;;;;;;-0.85;100.00;100976.64;106551;1253;60452;-51
2023/12/08 10:00:10;;;;;;;3.70;2.80;;;;;;;-0.83;100.00;100974.02;104682;1252;72685;-50
2023/12/08 10:02:37;;;;;;;5.20;2.80;;;;;;;-0.79;100.00;100974.98;109057;1254;68159;-51
2023/12/08 10:05:06;;;;;;;7.20;3.00;;;;;;;-0.74;100.00;100972.40;109041;1253;72658;-51
2023/12/08 10:07:34;;;;;;;4.90;3.10;;;;;;;-0.71;100.00;100969.99;109114;1251;58269;-52
2023/12/08 10:10:02;;;;;;;5.70;2.70;;;;;;;-0.69;100.00;100966.50;106941;1253;59568;-52
2023/12/08 10:12:29;;;;;;;4.10;2.20;;;;;;;-0.67;100.00;100967.22;105001;1253;72515;-51
2023/12/08 10:14:58;;;;;;;3.20;2.80;;;;;;;-0.65;100.00;100966.56;104811;1256;66631;-51
2023/12/08 10:17:26;;;;;;;3.40;2.70;;;;;;;-0.63;100.00;100964.84;109039;1253;71638;-52
2023/12/08 10:20:10;;;;;;;2.50;1.90;;;;;;;-0.60;100.00;100970.35;109171;1252;60906;-52
2023/12/08 10:22:48;;;;;;;2.80;2.30;;;;;;;-0.56;100.00;100976.22;109061;1253;59100;-51
2023/12/08 10:25:17;;;;;;;2.40;2.00;;;;;;;-0.53;100.00;100975.23;108488;1253;73943;-52
2023/12/08 10:27:46;;;;;;;6.40;2.20;;;;;;;-0.50;100.00;100968.04;108529;1252;66285;-50
2023/12/08 10:30:14;;;;;;;5.40;2.20;;;;;;;-0.46;100.00;100965.30;109261;1252;72978;-51
2023/12/08 10:32:45;;;;;;;2.50;1.80;;;;;;;-0.39;100.00;100964.86;109190;1253;61824;-52
2023/12/08 10:35:13;;;;;;;2.40;2.20;;;;;;;-0.31;100.00;100967.98;109177;1252;60163;-52
2023/12/08 10:37:41;;;;;;;2.70;1.80;;;;;;;-0.24;100.00;100968.60;108153;1253;72617;-51
2023/12/08 10:40:13;;;;;;;3.30;2.70;;;;;;;-0.21;100.00;100964.77;105036;1253;66467;-52
2023/12/08 10:42:42;;;;;;;4.20;3.10;;;;;;;-0.20;100.00;100973.77;107061;1253;71450;-52
2023/12/08 10:45:10;;;;;;;3.60;2.30;;;;;;;-0.23;100.00;100967.91;105729;1251;61202;-52
2023/12/08 10:47:42;;;;;;;4.70;2.80;;;;;;;-0.26;100.00;100970.70;105423;1257;60517;-52
2023/12/08 10:50:11;;;;;;;5.10;2.90;;;;;;;-0.29;100.00;100972.77;105020;1256;74960;-52
2023/12/08 10:52:39;;;;;;;4.70;3.50;;;;;;;-0.32;100.00;100970.42;104786;1253;66291;-52
2023/12/08 10:55:07;;;;;;;3.20;3.00;;;;;;;-0.34;100.00;100965.63;104677;1253;73305;-52
2023/12/08 10:57:36;;;;;;;2.50;2.20;;;;;;;-0.36;100.00;100968.25;106576;1253;60436;-51
2023/12/08 11:00:15;;;;;;;2.90;2.30;;;;;;;-0.38;100.00;100969.64;105166;1252;60448;-52
2023/12/08 11:02:47;;;;;;;3.10;2.20;;;;;;;-0.40;100.00;100970.83;105781;1256;73795;-52
2023/12/08 11:05:48;;;;;;;2.70;1.90;;;;;;;-0.40;100.00;100965.89;104627;1253;65849;-51
2023/12/08 11:08:17;;;;;;;2.70;2.20;;;;;;;-0.39;100.00;100971.92;104689;1253;71567;-53
2023/12/08 11:10:46;;;;;;;4.20;2.20;;;;;;;-0.38;100.00;100966.11;104803;1256;60449;-52